sensor_id;sensor_type;location;lat;lon;timestamp;P1;durP1;ratioP1;P2;durP2;ratioP2
46765;SDS011;32527;51.986;5.842;2023-03-04T00:01:00;20.40;;;4.45;;
46765;SDS011;32527;51.986;5.842;2023-03-04T00:03:25;17.98;;;3.70;;
46765;SDS011;32527;51.986;5.842;2023-03-04T00:05:51;17.63;;;3.78;;
46765;SDS011;32527;51.986;5.842;2023-03-04T00:08:17;16.70;;;2.90;;
46765;SDS011;32527;51.986;5.842;2023-03-04T00:10:42;17.35;;;3.22;;
46765;SDS011;32527;51.986;5.842;2023-03-04T00:13:08;16.50;;;3.05;;
46765;SDS011;32527;51.986;5.842;2023-03-04T00:15:34;16.77;;;3.50;;
46765;SDS011;32527;51.986;5.842;2023-03-04T00:18:00;15.65;;;2.88;;
46765;SDS011;32527;51.986;5.842;2023-03-04T00:20:25;13.27;;;3.85;;
46765;SDS011;32527;51.986;5.842;2023-03-04T00:22:51;21.15;;;3.72;;
46765;SDS011;32527;51.986;5.842;2023-03-04T00:25:17;11.63;;;4.38;;
46765;SDS011;32527;51.986;5.842;2023-03-04T00:27:42;16.05;;;3.05;;
46765;SDS011;32527;51.986;5.842;2023-03-04T00:30:08;10.88;;;3.17;;
46765;SDS011;32527;51.986;5.842;2023-03-04T00:32:34;16.75;;;3.60;;
46765;SDS011;32527;51.986;5.842;2023-03-04T00:35:02;24.58;;;4.18;;
46765;SDS011;32527;51.986;5.842;2023-03-04T00:37:28;10.35;;;3.00;;
46765;SDS011;32527;51.986;5.842;2023-03-04T00:39:54;19.17;;;4.03;;
46765;SDS011;32527;51.986;5.842;2023-03-04T00:42:19;19.52;;;4.00;;
46765;SDS011;32527;51.986;5.842;2023-03-04T00:44:45;18.20;;;3.22;;
46765;SDS011;32527;51.986;5.842;2023-03-04T00:47:11;14.40;;;3.08;;
46765;SDS011;32527;51.986;5.842;2023-03-04T00:49:36;8.40;;;3.00;;
46765;SDS011;32527;51.986;5.842;2023-03-04T00:52:02;17.75;;;3.50;;
46765;SDS011;32527;51.986;5.842;2023-03-04T00:54:28;11.23;;;3.85;;
46765;SDS011;32527;51.986;5.842;2023-03-04T00:56:53;13.32;;;2.97;;
46765;SDS011;32527;51.986;5.842;2023-03-04T00:59:19;14.60;;;4.18;;
46765;SDS011;32527;51.986;5.842;2023-03-04T01:01:44;16.20;;;3.35;;
46765;SDS011;32527;51.986;5.842;2023-03-04T01:04:10;13.63;;;3.85;;
46765;SDS011;32527;51.986;5.842;2023-03-04T01:06:36;19.83;;;3.20;;
46765;SDS011;32527;51.986;5.842;2023-03-04T01:09:02;17.42;;;3.25;;
46765;SDS011;32527;51.986;5.842;2023-03-04T01:11:28;15.48;;;3.42;;
46765;SDS011;32527;51.986;5.842;2023-03-04T01:13:54;12.80;;;3.42;;
46765;SDS011;32527;51.986;5.842;2023-03-04T01:16:22;18.10;;;3.58;;
46765;SDS011;32527;51.986;5.842;2023-03-04T01:18:48;20.80;;;3.90;;
46765;SDS011;32527;51.986;5.842;2023-03-04T01:21:14;20.52;;;3.92;;
46765;SDS011;32527;51.986;5.842;2023-03-04T01:23:40;14.73;;;3.83;;
46765;SDS011;32527;51.986;5.842;2023-03-04T01:26:07;14.32;;;3.63;;
46765;SDS011;32527;51.986;5.842;2023-03-04T01:28:33;14.60;;;3.72;;
46765;SDS011;32527;51.986;5.842;2023-03-04T01:31:00;12.95;;;3.30;;
46765;SDS011;32527;51.986;5.842;2023-03-04T01:33:27;19.73;;;4.88;;
46765;SDS011;32527;51.986;5.842;2023-03-04T01:35:53;13.35;;;3.75;;
46765;SDS011;32527;51.986;5.842;2023-03-04T01:38:28;13.10;;;2.92;;
46765;SDS011;32527;51.986;5.842;2023-03-04T01:41:22;12.25;;;3.60;;
46765;SDS011;32527;51.986;5.842;2023-03-04T01:43:50;13.07;;;2.63;;
46765;SDS011;32527;51.986;5.842;2023-03-04T01:46:16;14.10;;;2.97;;
46765;SDS011;32527;51.986;5.842;2023-03-04T01:48:42;14.70;;;3.08;;
46765;SDS011;32527;51.986;5.842;2023-03-04T01:51:13;10.77;;;2.85;;
46765;SDS011;32527;51.986;5.842;2023-03-04T01:53:41;17.10;;;2.50;;
46765;SDS011;32527;51.986;5.842;2023-03-04T01:56:18;11.98;;;2.50;;
46765;SDS011;32527;51.986;5.842;2023-03-04T01:59:05;11.95;;;2.92;;
46765;SDS011;32527;51.986;5.842;2023-03-04T02:01:39;15.65;;;2.83;;
46765;SDS011;32527;51.986;5.842;2023-03-04T02:04:07;10.57;;;3.13;;
46765;SDS011;32527;51.986;5.842;2023-03-04T02:06:35;23.55;;;4.38;;
46765;SDS011;32527;51.986;5.842;2023-03-04T02:09:03;15.18;;;3.50;;
46765;SDS011;32527;51.986;5.842;2023-03-04T02:11:31;16.88;;;3.67;;
46765;SDS011;32527;51.986;5.842;2023-03-04T02:13:57;18.52;;;3.75;;
46765;SDS011;32527;51.986;5.842;2023-03-04T02:16:24;18.33;;;3.17;;
46765;SDS011;32527;51.986;5.842;2023-03-04T02:18:50;13.90;;;2.92;;
46765;SDS011;32527;51.986;5.842;2023-03-04T02:21:25;16.45;;;2.70;;
46765;SDS011;32527;51.986;5.842;2023-03-04T02:23:59;14.13;;;2.85;;
46765;SDS011;32527;51.986;5.842;2023-03-04T02:26:34;18.35;;;4.60;;
46765;SDS011;32527;51.986;5.842;2023-03-04T02:29:00;8.75;;;2.60;;
46765;SDS011;32527;51.986;5.842;2023-03-04T02:31:32;8.80;;;2.60;;
46765;SDS011;32527;51.986;5.842;2023-03-04T02:34:01;13.88;;;2.55;;
46765;SDS011;32527;51.986;5.842;2023-03-04T02:36:29;20.83;;;4.45;;
46765;SDS011;32527;51.986;5.842;2023-03-04T02:39:00;10.85;;;2.70;;
46765;SDS011;32527;51.986;5.842;2023-03-04T02:41:29;14.65;;;3.58;;
46765;SDS011;32527;51.986;5.842;2023-03-04T02:43:56;12.55;;;2.83;;
46765;SDS011;32527;51.986;5.842;2023-03-04T02:46:22;20.23;;;3.35;;
46765;SDS011;32527;51.986;5.842;2023-03-04T02:48:49;13.52;;;2.97;;
46765;SDS011;32527;51.986;5.842;2023-03-04T02:51:15;12.07;;;3.38;;
46765;SDS011;32527;51.986;5.842;2023-03-04T02:53:41;14.38;;;4.88;;
46765;SDS011;32527;51.986;5.842;2023-03-04T02:56:08;6.95;;;3.30;;
46765;SDS011;32527;51.986;5.842;2023-03-04T02:58:36;11.38;;;2.92;;
46765;SDS011;32527;51.986;5.842;2023-03-04T03:01:03;8.85;;;2.70;;
46765;SDS011;32527;51.986;5.842;2023-03-04T03:03:29;12.45;;;2.90;;
46765;SDS011;32527;51.986;5.842;2023-03-04T03:05:55;9.20;;;2.22;;
46765;SDS011;32527;51.986;5.842;2023-03-04T03:08:23;14.15;;;3.25;;
46765;SDS011;32527;51.986;5.842;2023-03-04T03:10:49;11.70;;;2.38;;
46765;SDS011;32527;51.986;5.842;2023-03-04T03:13:16;19.02;;;3.05;;
46765;SDS011;32527;51.986;5.842;2023-03-04T03:15:43;10.95;;;2.55;;
46765;SDS011;32527;51.986;5.842;2023-03-04T03:18:10;13.45;;;2.85;;
46765;SDS011;32527;51.986;5.842;2023-03-04T03:20:37;17.38;;;3.63;;
46765;SDS011;32527;51.986;5.842;2023-03-04T03:23:03;10.23;;;3.00;;
46765;SDS011;32527;51.986;5.842;2023-03-04T03:25:29;15.70;;;3.70;;
46765;SDS011;32527;51.986;5.842;2023-03-04T03:27:56;18.88;;;3.22;;
46765;SDS011;32527;51.986;5.842;2023-03-04T03:30:22;18.55;;;2.97;;
46765;SDS011;32527;51.986;5.842;2023-03-04T03:32:48;11.23;;;2.10;;
46765;SDS011;32527;51.986;5.842;2023-03-04T03:35:14;6.30;;;2.20;;
46765;SDS011;32527;51.986;5.842;2023-03-04T03:37:41;10.55;;;2.38;;
46765;SDS011;32527;51.986;5.842;2023-03-04T03:40:07;14.18;;;3.05;;
46765;SDS011;32527;51.986;5.842;2023-03-04T03:42:36;10.75;;;3.22;;
46765;SDS011;32527;51.986;5.842;2023-03-04T03:45:04;13.98;;;3.42;;
46765;SDS011;32527;51.986;5.842;2023-03-04T03:47:33;10.95;;;2.70;;
46765;SDS011;32527;51.986;5.842;2023-03-04T03:50:00;9.45;;;2.40;;
46765;SDS011;32527;51.986;5.842;2023-03-04T03:52:26;19.17;;;2.88;;
46765;SDS011;32527;51.986;5.842;2023-03-04T03:54:54;10.20;;;2.55;;
46765;SDS011;32527;51.986;5.842;2023-03-04T03:57:32;10.30;;;2.78;;
46765;SDS011;32527;51.986;5.842;2023-03-04T03:59:58;7.57;;;2.83;;
46765;SDS011;32527;51.986;5.842;2023-03-04T04:02:24;12.23;;;2.35;;
46765;SDS011;32527;51.986;5.842;2023-03-04T04:04:50;14.40;;;2.80;;
46765;SDS011;32527;51.986;5.842;2023-03-04T04:07:16;10.20;;;2.28;;
46765;SDS011;32527;51.986;5.842;2023-03-04T04:09:41;14.77;;;2.67;;
46765;SDS011;32527;51.986;5.842;2023-03-04T04:12:07;12.68;;;3.58;;
46765;SDS011;32527;51.986;5.842;2023-03-04T04:14:33;9.40;;;2.97;;
46765;SDS011;32527;51.986;5.842;2023-03-04T04:16:59;10.88;;;2.75;;
46765;SDS011;32527;51.986;5.842;2023-03-04T04:19:24;11.52;;;2.53;;
46765;SDS011;32527;51.986;5.842;2023-03-04T04:21:50;11.85;;;2.33;;
46765;SDS011;32527;51.986;5.842;2023-03-04T04:24:16;13.13;;;2.13;;
46765;SDS011;32527;51.986;5.842;2023-03-04T04:26:42;11.65;;;2.42;;
46765;SDS011;32527;51.986;5.842;2023-03-04T04:29:08;7.30;;;2.20;;
46765;SDS011;32527;51.986;5.842;2023-03-04T04:31:34;14.35;;;2.80;;
46765;SDS011;32527;51.986;5.842;2023-03-04T04:34:00;7.65;;;2.47;;
46765;SDS011;32527;51.986;5.842;2023-03-04T04:36:26;9.07;;;2.47;;
46765;SDS011;32527;51.986;5.842;2023-03-04T04:38:52;12.20;;;2.70;;
46765;SDS011;32527;51.986;5.842;2023-03-04T04:41:22;10.10;;;2.60;;
46765;SDS011;32527;51.986;5.842;2023-03-04T04:43:56;12.98;;;2.70;;
46765;SDS011;32527;51.986;5.842;2023-03-04T04:46:22;9.80;;;1.98;;
46765;SDS011;32527;51.986;5.842;2023-03-04T04:48:48;13.23;;;3.17;;
46765;SDS011;32527;51.986;5.842;2023-03-04T04:51:14;16.00;;;2.60;;
46765;SDS011;32527;51.986;5.842;2023-03-04T04:53:40;12.55;;;2.70;;
46765;SDS011;32527;51.986;5.842;2023-03-04T04:56:11;10.35;;;2.05;;
46765;SDS011;32527;51.986;5.842;2023-03-04T04:58:38;12.63;;;2.33;;
46765;SDS011;32527;51.986;5.842;2023-03-04T05:01:05;13.73;;;2.80;;
46765;SDS011;32527;51.986;5.842;2023-03-04T05:03:31;13.30;;;2.80;;
46765;SDS011;32527;51.986;5.842;2023-03-04T05:05:58;17.02;;;2.70;;
46765;SDS011;32527;51.986;5.842;2023-03-04T05:08:24;9.57;;;2.40;;
46765;SDS011;32527;51.986;5.842;2023-03-04T05:10:50;6.28;;;2.88;;
46765;SDS011;32527;51.986;5.842;2023-03-04T05:13:17;11.70;;;2.58;;
46765;SDS011;32527;51.986;5.842;2023-03-04T05:15:43;13.27;;;2.70;;
46765;SDS011;32527;51.986;5.842;2023-03-04T05:18:09;11.05;;;2.85;;
46765;SDS011;32527;51.986;5.842;2023-03-04T05:20:35;5.28;;;2.38;;
46765;SDS011;32527;51.986;5.842;2023-03-04T05:23:01;11.32;;;2.97;;
46765;SDS011;32527;51.986;5.842;2023-03-04T05:25:27;8.13;;;2.22;;
46765;SDS011;32527;51.986;5.842;2023-03-04T05:27:52;12.32;;;2.22;;
46765;SDS011;32527;51.986;5.842;2023-03-04T05:30:18;12.15;;;2.58;;
46765;SDS011;32527;51.986;5.842;2023-03-04T05:32:44;11.57;;;2.65;;
46765;SDS011;32527;51.986;5.842;2023-03-04T05:35:10;6.00;;;1.98;;
46765;SDS011;32527;51.986;5.842;2023-03-04T05:37:36;6.18;;;2.25;;
46765;SDS011;32527;51.986;5.842;2023-03-04T05:40:02;4.80;;;1.98;;
46765;SDS011;32527;51.986;5.842;2023-03-04T05:42:29;14.05;;;2.78;;
46765;SDS011;32527;51.986;5.842;2023-03-04T05:44:54;13.93;;;2.30;;
46765;SDS011;32527;51.986;5.842;2023-03-04T05:47:20;8.90;;;2.70;;
46765;SDS011;32527;51.986;5.842;2023-03-04T05:49:46;6.68;;;2.03;;
46765;SDS011;32527;51.986;5.842;2023-03-04T05:52:12;14.93;;;2.20;;
46765;SDS011;32527;51.986;5.842;2023-03-04T05:54:37;10.02;;;2.42;;
46765;SDS011;32527;51.986;5.842;2023-03-04T05:57:03;8.70;;;2.13;;
46765;SDS011;32527;51.986;5.842;2023-03-04T05:59:29;8.55;;;2.58;;
46765;SDS011;32527;51.986;5.842;2023-03-04T06:01:55;6.18;;;2.30;;
46765;SDS011;32527;51.986;5.842;2023-03-04T06:04:21;8.10;;;2.35;;
46765;SDS011;32527;51.986;5.842;2023-03-04T06:06:46;11.77;;;2.88;;
46765;SDS011;32527;51.986;5.842;2023-03-04T06:09:12;9.35;;;2.65;;
46765;SDS011;32527;51.986;5.842;2023-03-04T06:11:39;6.72;;;2.33;;
46765;SDS011;32527;51.986;5.842;2023-03-04T06:14:05;10.90;;;2.35;;
46765;SDS011;32527;51.986;5.842;2023-03-04T06:16:31;13.13;;;2.20;;
46765;SDS011;32527;51.986;5.842;2023-03-04T06:18:57;11.15;;;2.53;;
46765;SDS011;32527;51.986;5.842;2023-03-04T06:21:23;7.18;;;2.17;;
46765;SDS011;32527;51.986;5.842;2023-03-04T06:23:48;7.50;;;1.88;;
46765;SDS011;32527;51.986;5.842;2023-03-04T06:26:14;8.43;;;2.05;;
46765;SDS011;32527;51.986;5.842;2023-03-04T06:28:41;14.40;;;2.55;;
46765;SDS011;32527;51.986;5.842;2023-03-04T06:31:06;9.57;;;2.95;;
46765;SDS011;32527;51.986;5.842;2023-03-04T06:33:32;8.45;;;2.38;;
46765;SDS011;32527;51.986;5.842;2023-03-04T06:35:58;11.25;;;3.30;;
46765;SDS011;32527;51.986;5.842;2023-03-04T06:38:25;8.80;;;2.97;;
46765;SDS011;32527;51.986;5.842;2023-03-04T06:40:51;13.85;;;2.70;;
46765;SDS011;32527;51.986;5.842;2023-03-04T06:43:17;9.75;;;2.47;;
46765;SDS011;32527;51.986;5.842;2023-03-04T06:45:43;8.80;;;2.58;;
46765;SDS011;32527;51.986;5.842;2023-03-04T06:48:09;10.60;;;2.67;;
46765;SDS011;32527;51.986;5.842;2023-03-04T06:50:35;13.57;;;2.47;;
46765;SDS011;32527;51.986;5.842;2023-03-04T06:53:01;14.68;;;4.20;;
46765;SDS011;32527;51.986;5.842;2023-03-04T06:55:26;21.83;;;7.55;;
46765;SDS011;32527;51.986;5.842;2023-03-04T06:57:52;27.98;;;8.43;;
46765;SDS011;32527;51.986;5.842;2023-03-04T07:00:18;28.83;;;7.32;;
46765;SDS011;32527;51.986;5.842;2023-03-04T07:02:44;29.42;;;7.63;;
46765;SDS011;32527;51.986;5.842;2023-03-04T07:05:10;31.48;;;7.95;;
46765;SDS011;32527;51.986;5.842;2023-03-04T07:07:36;32.15;;;9.68;;
46765;SDS011;32527;51.986;5.842;2023-03-04T07:10:02;20.25;;;6.07;;
46765;SDS011;32527;51.986;5.842;2023-03-04T07:12:28;13.90;;;3.72;;
46765;SDS011;32527;51.986;5.842;2023-03-04T07:14:54;14.38;;;3.30;;
46765;SDS011;32527;51.986;5.842;2023-03-04T07:17:20;15.20;;;3.45;;
46765;SDS011;32527;51.986;5.842;2023-03-04T07:19:45;18.20;;;4.47;;
46765;SDS011;32527;51.986;5.842;2023-03-04T07:22:11;10.82;;;3.38;;
46765;SDS011;32527;51.986;5.842;2023-03-04T07:24:37;13.27;;;3.30;;
46765;SDS011;32527;51.986;5.842;2023-03-04T07:27:03;16.92;;;4.57;;
46765;SDS011;32527;51.986;5.842;2023-03-04T07:29:29;6.75;;;3.35;;
46765;SDS011;32527;51.986;5.842;2023-03-04T07:31:55;8.70;;;2.60;;
46765;SDS011;32527;51.986;5.842;2023-03-04T07:34:21;9.45;;;2.30;;
46765;SDS011;32527;51.986;5.842;2023-03-04T07:36:47;12.07;;;2.60;;
46765;SDS011;32527;51.986;5.842;2023-03-04T07:39:13;10.23;;;3.45;;
46765;SDS011;32527;51.986;5.842;2023-03-04T07:41:39;13.38;;;2.83;;
46765;SDS011;32527;51.986;5.842;2023-03-04T07:44:06;18.27;;;5.05;;
46765;SDS011;32527;51.986;5.842;2023-03-04T07:46:32;11.40;;;3.08;;
46765;SDS011;32527;51.986;5.842;2023-03-04T07:48:58;10.20;;;2.95;;
46765;SDS011;32527;51.986;5.842;2023-03-04T07:51:25;9.73;;;3.03;;
46765;SDS011;32527;51.986;5.842;2023-03-04T07:53:55;9.85;;;3.17;;
46765;SDS011;32527;51.986;5.842;2023-03-04T07:56:24;6.63;;;3.67;;
46765;SDS011;32527;51.986;5.842;2023-03-04T07:58:52;10.65;;;2.65;;
46765;SDS011;32527;51.986;5.842;2023-03-04T08:01:23;7.50;;;2.60;;
46765;SDS011;32527;51.986;5.842;2023-03-04T08:03:52;10.80;;;2.70;;
46765;SDS011;32527;51.986;5.842;2023-03-04T08:06:18;12.57;;;3.40;;
46765;SDS011;32527;51.986;5.842;2023-03-04T08:08:44;12.63;;;2.95;;
46765;SDS011;32527;51.986;5.842;2023-03-04T08:11:12;14.00;;;3.33;;
46765;SDS011;32527;51.986;5.842;2023-03-04T08:13:43;9.70;;;2.97;;
46765;SDS011;32527;51.986;5.842;2023-03-04T08:16:12;12.00;;;3.63;;
46765;SDS011;32527;51.986;5.842;2023-03-04T08:18:40;9.23;;;3.20;;
46765;SDS011;32527;51.986;5.842;2023-03-04T08:21:07;9.77;;;3.42;;
46765;SDS011;32527;51.986;5.842;2023-03-04T08:23:35;10.32;;;3.40;;
46765;SDS011;32527;51.986;5.842;2023-03-04T08:26:05;9.98;;;3.08;;
46765;SDS011;32527;51.986;5.842;2023-03-04T08:28:32;12.77;;;3.30;;
46765;SDS011;32527;51.986;5.842;2023-03-04T08:30:58;13.38;;;3.10;;
46765;SDS011;32527;51.986;5.842;2023-03-04T08:33:24;10.15;;;2.40;;
46765;SDS011;32527;51.986;5.842;2023-03-04T08:35:50;8.73;;;2.97;;
46765;SDS011;32527;51.986;5.842;2023-03-04T08:45:55;8.45;;;2.20;;
46765;SDS011;32527;51.986;5.842;2023-03-04T08:48:41;8.25;;;2.67;;
46765;SDS011;32527;51.986;5.842;2023-03-04T08:51:08;8.85;;;2.25;;
46765;SDS011;32527;51.986;5.842;2023-03-04T08:53:36;12.98;;;3.85;;
46765;SDS011;32527;51.986;5.842;2023-03-04T08:56:02;7.03;;;2.65;;
46765;SDS011;32527;51.986;5.842;2023-03-04T08:58:29;7.68;;;2.25;;
46765;SDS011;32527;51.986;5.842;2023-03-04T09:00:55;6.35;;;2.25;;
46765;SDS011;32527;51.986;5.842;2023-03-04T09:03:22;8.80;;;1.98;;
46765;SDS011;32527;51.986;5.842;2023-03-04T09:05:48;5.05;;;2.03;;
46765;SDS011;32527;51.986;5.842;2023-03-04T09:08:15;5.18;;;2.40;;
46765;SDS011;32527;51.986;5.842;2023-03-04T09:10:40;7.95;;;2.65;;
46765;SDS011;32527;51.986;5.842;2023-03-04T09:13:10;7.43;;;2.30;;
46765;SDS011;32527;51.986;5.842;2023-03-04T09:23:01;4.32;;;2.10;;
46765;SDS011;32527;51.986;5.842;2023-03-04T09:26:13;7.80;;;2.97;;
46765;SDS011;32527;51.986;5.842;2023-03-04T09:28:45;6.60;;;2.60;;
46765;SDS011;32527;51.986;5.842;2023-03-04T09:31:31;6.38;;;2.25;;
46765;SDS011;32527;51.986;5.842;2023-03-04T09:34:22;4.75;;;1.73;;
46765;SDS011;32527;51.986;5.842;2023-03-04T09:36:48;8.20;;;2.80;;
46765;SDS011;32527;51.986;5.842;2023-03-04T09:39:14;4.80;;;2.20;;
46765;SDS011;32527;51.986;5.842;2023-03-04T09:41:41;6.43;;;2.40;;
46765;SDS011;32527;51.986;5.842;2023-03-04T09:44:29;3.95;;;2.10;;
46765;SDS011;32527;51.986;5.842;2023-03-04T09:47:00;6.28;;;2.40;;
46765;SDS011;32527;51.986;5.842;2023-03-04T09:49:28;5.72;;;1.98;;
46765;SDS011;32527;51.986;5.842;2023-03-04T09:58:37;6.63;;;2.25;;
46765;SDS011;32527;51.986;5.842;2023-03-04T10:05:16;7.60;;;2.33;;
46765;SDS011;32527;51.986;5.842;2023-03-04T10:07:48;10.27;;;2.72;;
46765;SDS011;32527;51.986;5.842;2023-03-04T10:10:23;6.40;;;2.22;;
46765;SDS011;32527;51.986;5.842;2023-03-04T10:13:15;5.65;;;2.25;;
46765;SDS011;32527;51.986;5.842;2023-03-04T10:16:07;6.60;;;2.45;;
46765;SDS011;32527;51.986;5.842;2023-03-04T10:18:36;4.18;;;1.90;;
46765;SDS011;32527;51.986;5.842;2023-03-04T10:21:10;5.28;;;1.95;;
46765;SDS011;32527;51.986;5.842;2023-03-04T10:23:39;7.13;;;2.40;;
46765;SDS011;32527;51.986;5.842;2023-03-04T10:26:11;6.70;;;3.83;;
46765;SDS011;32527;51.986;5.842;2023-03-04T10:28:39;5.60;;;2.58;;
46765;SDS011;32527;51.986;5.842;2023-03-04T10:31:08;5.80;;;2.05;;
46765;SDS011;32527;51.986;5.842;2023-03-04T10:33:51;8.38;;;2.15;;
46765;SDS011;32527;51.986;5.842;2023-03-04T10:36:23;2.15;;;1.40;;
46765;SDS011;32527;51.986;5.842;2023-03-04T10:39:11;7.88;;;2.15;;
46765;SDS011;32527;51.986;5.842;2023-03-04T10:41:45;4.90;;;1.80;;
46765;SDS011;32527;51.986;5.842;2023-03-04T10:44:26;7.60;;;1.95;;
46765;SDS011;32527;51.986;5.842;2023-03-04T10:46:53;3.30;;;1.58;;
46765;SDS011;32527;51.986;5.842;2023-03-04T10:49:20;5.22;;;1.90;;
46765;SDS011;32527;51.986;5.842;2023-03-04T10:51:47;5.00;;;2.20;;
46765;SDS011;32527;51.986;5.842;2023-03-04T10:56:52;3.30;;;1.73;;
46765;SDS011;32527;51.986;5.842;2023-03-04T11:02:25;4.13;;;1.55;;
46765;SDS011;32527;51.986;5.842;2023-03-04T11:07:40;3.72;;;1.90;;
46765;SDS011;32527;51.986;5.842;2023-03-04T11:10:16;7.47;;;1.58;;
46765;SDS011;32527;51.986;5.842;2023-03-04T11:15:19;2.40;;;1.63;;
46765;SDS011;32527;51.986;5.842;2023-03-04T11:18:05;5.18;;;2.22;;
46765;SDS011;32527;51.986;5.842;2023-03-04T11:20:38;4.05;;;1.70;;
46765;SDS011;32527;51.986;5.842;2023-03-04T11:23:11;3.50;;;2.22;;
46765;SDS011;32527;51.986;5.842;2023-03-04T11:25:41;3.97;;;1.75;;
46765;SDS011;32527;51.986;5.842;2023-03-04T11:30:57;2.90;;;1.83;;
46765;SDS011;32527;51.986;5.842;2023-03-04T11:33:35;3.85;;;2.08;;
46765;SDS011;32527;51.986;5.842;2023-03-04T11:39:16;5.80;;;2.28;;
46765;SDS011;32527;51.986;5.842;2023-03-04T11:41:53;4.47;;;1.67;;
46765;SDS011;32527;51.986;5.842;2023-03-04T11:44:24;3.80;;;2.03;;
46765;SDS011;32527;51.986;5.842;2023-03-04T11:49:45;4.93;;;1.95;;
46765;SDS011;32527;51.986;5.842;2023-03-04T12:12:17;4.63;;;1.60;;
46765;SDS011;32527;51.986;5.842;2023-03-04T12:22:45;5.65;;;1.98;;
46765;SDS011;32527;51.986;5.842;2023-03-04T12:26:03;2.33;;;1.38;;
46765;SDS011;32527;51.986;5.842;2023-03-04T12:31:40;4.20;;;1.73;;
46765;SDS011;32527;51.986;5.842;2023-03-04T12:42:36;3.88;;;1.73;;
46765;SDS011;32527;51.986;5.842;2023-03-04T12:48:03;4.30;;;1.45;;
46765;SDS011;32527;51.986;5.842;2023-03-04T12:50:41;4.60;;;1.70;;
46765;SDS011;32527;51.986;5.842;2023-03-04T12:53:26;7.30;;;1.40;;
46765;SDS011;32527;51.986;5.842;2023-03-04T12:55:59;10.65;;;2.28;;
46765;SDS011;32527;51.986;5.842;2023-03-04T12:58:27;3.30;;;1.65;;
46765;SDS011;32527;51.986;5.842;2023-03-04T13:03:46;8.73;;;2.17;;
46765;SDS011;32527;51.986;5.842;2023-03-04T13:06:38;9.52;;;2.45;;
46765;SDS011;32527;51.986;5.842;2023-03-04T13:09:29;5.22;;;1.98;;
46765;SDS011;32527;51.986;5.842;2023-03-04T13:12:02;8.30;;;2.63;;
46765;SDS011;32527;51.986;5.842;2023-03-04T13:14:38;8.60;;;2.50;;
46765;SDS011;32527;51.986;5.842;2023-03-04T13:20:16;6.20;;;2.17;;
46765;SDS011;32527;51.986;5.842;2023-03-04T13:22:50;10.35;;;2.40;;
46765;SDS011;32527;51.986;5.842;2023-03-04T13:25:29;10.00;;;2.30;;
46765;SDS011;32527;51.986;5.842;2023-03-04T13:41:12;4.78;;;1.83;;
46765;SDS011;32527;51.986;5.842;2023-03-04T13:44:01;9.90;;;1.95;;
46765;SDS011;32527;51.986;5.842;2023-03-04T13:46:47;8.93;;;2.60;;
46765;SDS011;32527;51.986;5.842;2023-03-04T13:49:20;17.02;;;3.33;;
46765;SDS011;32527;51.986;5.842;2023-03-04T13:51:48;8.52;;;2.30;;
46765;SDS011;32527;51.986;5.842;2023-03-04T13:54:24;10.43;;;2.63;;
46765;SDS011;32527;51.986;5.842;2023-03-04T13:59:27;11.80;;;2.67;;
46765;SDS011;32527;51.986;5.842;2023-03-04T14:02:18;14.77;;;2.45;;
46765;SDS011;32527;51.986;5.842;2023-03-04T14:07:20;12.20;;;2.30;;
46765;SDS011;32527;51.986;5.842;2023-03-04T14:09:58;9.25;;;2.08;;
46765;SDS011;32527;51.986;5.842;2023-03-04T14:12:26;9.60;;;2.50;;
46765;SDS011;32527;51.986;5.842;2023-03-04T14:15:04;9.45;;;2.88;;
46765;SDS011;32527;51.986;5.842;2023-03-04T14:17:37;18.93;;;4.47;;
46765;SDS011;32527;51.986;5.842;2023-03-04T14:20:50;11.73;;;2.00;;
46765;SDS011;32527;51.986;5.842;2023-03-04T14:23:21;11.45;;;2.45;;
46765;SDS011;32527;51.986;5.842;2023-03-04T14:25:47;18.77;;;3.28;;
46765;SDS011;32527;51.986;5.842;2023-03-04T14:28:14;9.43;;;2.75;;
46765;SDS011;32527;51.986;5.842;2023-03-04T14:30:42;6.07;;;2.45;;
46765;SDS011;32527;51.986;5.842;2023-03-04T14:33:17;7.65;;;2.55;;
46765;SDS011;32527;51.986;5.842;2023-03-04T14:35:49;8.77;;;2.40;;
46765;SDS011;32527;51.986;5.842;2023-03-04T14:38:31;5.82;;;2.15;;
46765;SDS011;32527;51.986;5.842;2023-03-04T14:41:04;9.85;;;2.67;;
46765;SDS011;32527;51.986;5.842;2023-03-04T14:43:35;7.80;;;1.98;;
46765;SDS011;32527;51.986;5.842;2023-03-04T14:46:11;11.50;;;2.40;;
46765;SDS011;32527;51.986;5.842;2023-03-04T14:48:39;7.05;;;1.98;;
46765;SDS011;32527;51.986;5.842;2023-03-04T14:51:26;4.60;;;2.13;;
46765;SDS011;32527;51.986;5.842;2023-03-04T14:53:53;7.18;;;3.15;;
46765;SDS011;32527;51.986;5.842;2023-03-04T14:56:33;5.93;;;1.90;;
46765;SDS011;32527;51.986;5.842;2023-03-04T14:59:33;4.70;;;1.50;;
46765;SDS011;32527;51.986;5.842;2023-03-04T15:02:24;7.22;;;2.33;;
46765;SDS011;32527;51.986;5.842;2023-03-04T15:05:38;6.53;;;1.23;;
46765;SDS011;32527;51.986;5.842;2023-03-04T15:08:15;5.55;;;2.10;;
46765;SDS011;32527;51.986;5.842;2023-03-04T15:10:56;3.67;;;1.63;;
46765;SDS011;32527;51.986;5.842;2023-03-04T15:13:41;4.78;;;1.80;;
46765;SDS011;32527;51.986;5.842;2023-03-04T15:16:15;4.65;;;1.40;;
46765;SDS011;32527;51.986;5.842;2023-03-04T15:18:53;2.35;;;1.20;;
46765;SDS011;32527;51.986;5.842;2023-03-04T15:21:36;2.28;;;1.20;;
46765;SDS011;32527;51.986;5.842;2023-03-04T15:24:23;8.23;;;1.45;;
46765;SDS011;32527;51.986;5.842;2023-03-04T15:27:21;1.75;;;1.20;;
46765;SDS011;32527;51.986;5.842;2023-03-04T15:30:24;5.38;;;1.85;;
46765;SDS011;32527;51.986;5.842;2023-03-04T15:34:18;5.90;;;2.08;;
46765;SDS011;32527;51.986;5.842;2023-03-04T15:44:43;4.35;;;1.70;;
46765;SDS011;32527;51.986;5.842;2023-03-04T15:52:04;10.27;;;3.13;;
46765;SDS011;32527;51.986;5.842;2023-03-04T15:54:39;10.02;;;2.50;;
46765;SDS011;32527;51.986;5.842;2023-03-04T15:57:06;11.32;;;2.75;;
46765;SDS011;32527;51.986;5.842;2023-03-04T15:59:48;9.40;;;2.50;;
46765;SDS011;32527;51.986;5.842;2023-03-04T16:02:17;6.32;;;2.17;;
46765;SDS011;32527;51.986;5.842;2023-03-04T16:04:45;6.63;;;1.90;;
46765;SDS011;32527;51.986;5.842;2023-03-04T16:07:45;11.02;;;2.47;;
46765;SDS011;32527;51.986;5.842;2023-03-04T16:10:16;10.15;;;2.30;;
46765;SDS011;32527;51.986;5.842;2023-03-04T16:12:48;11.90;;;2.45;;
46765;SDS011;32527;51.986;5.842;2023-03-04T16:15:15;11.25;;;2.83;;
46765;SDS011;32527;51.986;5.842;2023-03-04T16:17:43;7.50;;;2.45;;
46765;SDS011;32527;51.986;5.842;2023-03-04T16:20:13;10.95;;;2.15;;
46765;SDS011;32527;51.986;5.842;2023-03-04T16:22:41;8.20;;;2.63;;
46765;SDS011;32527;51.986;5.842;2023-03-04T16:25:11;8.88;;;2.03;;
46765;SDS011;32527;51.986;5.842;2023-03-04T16:27:38;5.97;;;2.22;;
46765;SDS011;32527;51.986;5.842;2023-03-04T16:30:05;8.27;;;2.75;;
46765;SDS011;32527;51.986;5.842;2023-03-04T16:32:33;14.15;;;3.25;;
46765;SDS011;32527;51.986;5.842;2023-03-04T16:34:59;7.45;;;2.55;;
46765;SDS011;32527;51.986;5.842;2023-03-04T16:40:13;11.75;;;2.90;;
46765;SDS011;32527;51.986;5.842;2023-03-04T16:42:40;8.85;;;3.58;;
46765;SDS011;32527;51.986;5.842;2023-03-04T16:45:13;8.63;;;2.33;;
46765;SDS011;32527;51.986;5.842;2023-03-04T16:47:43;6.97;;;2.08;;
46765;SDS011;32527;51.986;5.842;2023-03-04T16:50:13;7.07;;;2.08;;
46765;SDS011;32527;51.986;5.842;2023-03-04T16:52:41;14.43;;;3.03;;
46765;SDS011;32527;51.986;5.842;2023-03-04T16:55:19;11.23;;;2.78;;
46765;SDS011;32527;51.986;5.842;2023-03-04T16:57:55;14.70;;;2.95;;
46765;SDS011;32527;51.986;5.842;2023-03-04T17:00:24;12.25;;;2.67;;
46765;SDS011;32527;51.986;5.842;2023-03-04T17:02:56;14.70;;;3.33;;
46765;SDS011;32527;51.986;5.842;2023-03-04T17:05:24;13.52;;;2.85;;
46765;SDS011;32527;51.986;5.842;2023-03-04T17:07:55;7.15;;;2.60;;